sensor_id;sensor_type;location;lat;lon;timestamp;temperature;humidity
16767;DHT22;8501;49.926;8.404;2023-07-13T00:02:09;23.40;99.90
16767;DHT22;8501;49.926;8.404;2023-07-13T00:04:35;23.50;99.90
16767;DHT22;8501;49.926;8.404;2023-07-13T00:07:00;23.40;99.90
16767;DHT22;8501;49.926;8.404;2023-07-13T00:09:26;23.30;99.90
16767;DHT22;8501;49.926;8.404;2023-07-13T00:11:56;23.30;99.90
16767;DHT22;8501;49.926;8.404;2023-07-13T00:14:24;23.30;99.90
16767;DHT22;8501;49.926;8.404;2023-07-13T00:16:50;23.30;99.90
16767;DHT22;8501;49.926;8.404;2023-07-13T00:19:16;23.30;99.90
16767;DHT22;8501;49.926;8.404;2023-07-13T00:21:42;23.30;99.90
16767;DHT22;8501;49.926;8.404;2023-07-13T00:24:11;23.20;99.90
16767;DHT22;8501;49.926;8.404;2023-07-13T00:26:38;23.10;99.90
16767;DHT22;8501;49.926;8.404;2023-07-13T00:29:04;23.10;99.90
16767;DHT22;8501;49.926;8.404;2023-07-13T00:31:34;23.20;99.90
16767;DHT22;8501;49.926;8.404;2023-07-13T00:34:00;23.10;99.90
16767;DHT22;8501;49.926;8.404;2023-07-13T00:36:26;23.10;99.90
16767;DHT22;8501;49.926;8.404;2023-07-13T00:38:52;22.90;99.90
16767;DHT22;8501;49.926;8.404;2023-07-13T00:41:18;22.90;99.90
16767;DHT22;8501;49.926;8.404;2023-07-13T00:43:44;22.90;99.90
16767;DHT22;8501;49.926;8.404;2023-07-13T00:46:27;22.90;99.90
16767;DHT22;8501;49.926;8.404;2023-07-13T00:48:55;22.90;99.90
16767;DHT22;8501;49.926;8.404;2023-07-13T00:51:45;22.90;99.90
16767;DHT22;8501;49.926;8.404;2023-07-13T00:54:15;22.90;99.90
16767;DHT22;8501;49.926;8.404;2023-07-13T00:56:44;23.00;99.90
16767;DHT22;8501;49.926;8.404;2023-07-13T00:59:11;23.00;99.90
16767;DHT22;8501;49.926;8.404;2023-07-13T01:01:38;23.00;99.90
16767;DHT22;8501;49.926;8.404;2023-07-13T01:04:05;23.00;99.90
16767;DHT22;8501;49.926;8.404;2023-07-13T01:06:36;23.00;99.90
16767;DHT22;8501;49.926;8.404;2023-07-13T01:09:03;23.00;99.90
16767;DHT22;8501;49.926;8.404;2023-07-13T01:11:29;22.90;99.90
16767;DHT22;8501;49.926;8.404;2023-07-13T01:13:54;22.80;99.90
16767;DHT22;8501;49.926;8.404;2023-07-13T01:16:30;22.60;99.90
16767;DHT22;8501;49.926;8.404;2023-07-13T01:18:56;22.60;99.90
16767;DHT22;8501;49.926;8.404;2023-07-13T01:21:27;22.50;99.90
16767;DHT22;8501;49.926;8.404;2023-07-13T01:23:53;22.50;99.90
16767;DHT22;8501;49.926;8.404;2023-07-13T01:26:19;22.60;99.90
16767;DHT22;8501;49.926;8.404;2023-07-13T01:28:44;22.60;99.90
16767;DHT22;8501;49.926;8.404;2023-07-13T01:31:10;22.60;99.90
16767;DHT22;8501;49.926;8.404;2023-07-13T01:33:38;22.40;99.90
16767;DHT22;8501;49.926;8.404;2023-07-13T01:36:05;22.50;99.90
16767;DHT22;8501;49.926;8.404;2023-07-13T01:38:31;22.50;99.90
16767;DHT22;8501;49.926;8.404;2023-07-13T01:40:57;22.40;99.90
16767;DHT22;8501;49.926;8.404;2023-07-13T01:43:22;22.50;99.90
16767;DHT22;8501;49.926;8.404;2023-07-13T01:45:48;22.40;99.90
16767;DHT22;8501;49.926;8.404;2023-07-13T01:48:14;22.30;99.90
16767;DHT22;8501;49.926;8.404;2023-07-13T01:50:40;22.20;99.90
16767;DHT22;8501;49.926;8.404;2023-07-13T01:53:06;22.10;99.90
16767;DHT22;8501;49.926;8.404;2023-07-13T01:55:31;22.00;99.90
16767;DHT22;8501;49.926;8.404;2023-07-13T01:57:57;21.90;99.90
16767;DHT22;8501;49.926;8.404;2023-07-13T02:00:23;22.00;99.90
16767;DHT22;8501;49.926;8.404;2023-07-13T02:02:50;21.90;99.90
16767;DHT22;8501;49.926;8.404;2023-07-13T02:05:16;21.90;99.90
16767;DHT22;8501;49.926;8.404;2023-07-13T02:07:41;21.80;99.90
16767;DHT22;8501;49.926;8.404;2023-07-13T02:10:08;21.80;99.90
16767;DHT22;8501;49.926;8.404;2023-07-13T02:12:34;21.90;99.90
16767;DHT22;8501;49.926;8.404;2023-07-13T02:15:00;21.90;99.90
16767;DHT22;8501;49.926;8.404;2023-07-13T02:17:26;21.90;99.90
16767;DHT22;8501;49.926;8.404;2023-07-13T02:19:52;21.80;99.90
16767;DHT22;8501;49.926;8.404;2023-07-13T02:22:18;21.80;99.90
16767;DHT22;8501;49.926;8.404;2023-07-13T02:24:44;21.70;99.90
16767;DHT22;8501;49.926;8.404;2023-07-13T02:27:09;21.60;99.90
16767;DHT22;8501;49.926;8.404;2023-07-13T02:29:35;21.50;99.90
16767;DHT22;8501;49.926;8.404;2023-07-13T02:32:01;21.40;99.90
16767;DHT22;8501;49.926;8.404;2023-07-13T02:34:26;21.40;99.90
16767;DHT22;8501;49.926;8.404;2023-07-13T02:36:52;21.50;99.90
16767;DHT22;8501;49.926;8.404;2023-07-13T02:39:18;21.60;99.90
16767;DHT22;8501;49.926;8.404;2023-07-13T02:41:44;21.50;99.90
16767;DHT22;8501;49.926;8.404;2023-07-13T02:44:09;21.40;99.90
16767;DHT22;8501;49.926;8.404;2023-07-13T02:46:37;21.20;99.90
16767;DHT22;8501;49.926;8.404;2023-07-13T02:49:03;21.10;99.90
16767;DHT22;8501;49.926;8.404;2023-07-13T02:51:29;21.00;99.90
16767;DHT22;8501;49.926;8.404;2023-07-13T02:53:55;21.00;99.90
16767;DHT22;8501;49.926;8.404;2023-07-13T02:56:25;21.00;99.90
16767;DHT22;8501;49.926;8.404;2023-07-13T02:58:51;21.00;99.90
16767;DHT22;8501;49.926;8.404;2023-07-13T03:01:17;21.00;99.90
16767;DHT22;8501;49.926;8.404;2023-07-13T03:03:45;21.00;99.90
16767;DHT22;8501;49.926;8.404;2023-07-13T03:06:11;20.90;99.90
16767;DHT22;8501;49.926;8.404;2023-07-13T03:08:37;20.80;99.90
16767;DHT22;8501;49.926;8.404;2023-07-13T03:11:17;20.70;99.90
16767;DHT22;8501;49.926;8.404;2023-07-13T03:13:43;20.70;99.90
16767;DHT22;8501;49.926;8.404;2023-07-13T03:16:09;20.70;99.90
16767;DHT22;8501;49.926;8.404;2023-07-13T03:18:36;20.70;99.90
16767;DHT22;8501;49.926;8.404;2023-07-13T03:21:03;20.60;99.90
16767;DHT22;8501;49.926;8.404;2023-07-13T03:23:28;20.60;99.90
16767;DHT22;8501;49.926;8.404;2023-07-13T03:26:06;20.60;99.90
16767;DHT22;8501;49.926;8.404;2023-07-13T03:28:33;20.50;99.90
16767;DHT22;8501;49.926;8.404;2023-07-13T03:31:12;20.40;99.90
16767;DHT22;8501;49.926;8.404;2023-07-13T03:33:38;20.30;99.90
16767;DHT22;8501;49.926;8.404;2023-07-13T03:36:06;20.30;99.90
16767;DHT22;8501;49.926;8.404;2023-07-13T03:38:32;20.40;99.90
16767;DHT22;8501;49.926;8.404;2023-07-13T03:40:58;20.20;99.90
16767;DHT22;8501;49.926;8.404;2023-07-13T03:43:23;20.20;99.90
16767;DHT22;8501;49.926;8.404;2023-07-13T03:45:49;20.10;99.90
16767;DHT22;8501;49.926;8.404;2023-07-13T03:48:14;20.00;99.90
16767;DHT22;8501;49.926;8.404;2023-07-13T03:50:40;20.00;99.90
16767;DHT22;8501;49.926;8.404;2023-07-13T03:53:06;20.00;99.90
16767;DHT22;8501;49.926;8.404;2023-07-13T03:55:32;20.10;99.90
16767;DHT22;8501;49.926;8.404;2023-07-13T03:58:00;20.00;99.90
16767;DHT22;8501;49.926;8.404;2023-07-13T04:00:26;19.90;99.90
16767;DHT22;8501;49.926;8.404;2023-07-13T04:02:52;20.00;99.90
16767;DHT22;8501;49.926;8.404;2023-07-13T04:05:17;20.00;99.90
16767;DHT22;8501;49.926;8.404;2023-07-13T04:07:44;20.00;99.90
16767;DHT22;8501;49.926;8.404;2023-07-13T04:10:09;20.00;99.90
16767;DHT22;8501;49.926;8.404;2023-07-13T04:12:35;19.90;99.90
16767;DHT22;8501;49.926;8.404;2023-07-13T04:15:01;19.80;99.90
16767;DHT22;8501;49.926;8.404;2023-07-13T04:17:26;19.90;99.90
16767;DHT22;8501;49.926;8.404;2023-07-13T04:19:52;19.80;99.90
16767;DHT22;8501;49.926;8.404;2023-07-13T04:22:17;19.80;99.90
16767;DHT22;8501;49.926;8.404;2023-07-13T04:24:43;19.90;99.90
16767;DHT22;8501;49.926;8.404;2023-07-13T04:27:09;19.70;99.90
16767;DHT22;8501;49.926;8.404;2023-07-13T04:29:34;19.70;99.90
16767;DHT22;8501;49.926;8.404;2023-07-13T04:32:00;19.70;99.90
16767;DHT22;8501;49.926;8.404;2023-07-13T04:34:26;19.70;99.90
16767;DHT22;8501;49.926;8.404;2023-07-13T04:36:52;19.80;99.90
16767;DHT22;8501;49.926;8.404;2023-07-13T04:39:18;19.80;99.90
16767;DHT22;8501;49.926;8.404;2023-07-13T04:41:45;19.80;99.90
16767;DHT22;8501;49.926;8.404;2023-07-13T04:44:11;19.80;99.90
16767;DHT22;8501;49.926;8.404;2023-07-13T04:46:37;19.90;99.90
16767;DHT22;8501;49.926;8.404;2023-07-13T04:49:03;20.00;99.90
16767;DHT22;8501;49.926;8.404;2023-07-13T04:51:30;20.00;99.90
16767;DHT22;8501;49.926;8.404;2023-07-13T04:53:55;20.00;99.90
16767;DHT22;8501;49.926;8.404;2023-07-13T04:56:21;20.00;99.90
16767;DHT22;8501;49.926;8.404;2023-07-13T04:58:46;20.00;99.90
16767;DHT22;8501;49.926;8.404;2023-07-13T05:01:12;20.10;99.90
16767;DHT22;8501;49.926;8.404;2023-07-13T05:03:39;20.20;99.90
16767;DHT22;8501;49.926;8.404;2023-07-13T05:06:07;20.10;99.90
16767;DHT22;8501;49.926;8.404;2023-07-13T05:08:35;20.20;99.90
16767;DHT22;8501;49.926;8.404;2023-07-13T05:13:41;20.10;99.90
16767;DHT22;8501;49.926;8.404;2023-07-13T05:16:07;20.20;99.90
16767;DHT22;8501;49.926;8.404;2023-07-13T05:18:33;20.20;99.90
16767;DHT22;8501;49.926;8.404;2023-07-13T05:21:04;20.20;99.90
16767;DHT22;8501;49.926;8.404;2023-07-13T05:23:32;20.30;99.90
16767;DHT22;8501;49.926;8.404;2023-07-13T05:25:57;20.30;99.90
16767;DHT22;8501;49.926;8.404;2023-07-13T05:28:23;20.30;99.90
16767;DHT22;8501;49.926;8.404;2023-07-13T05:30:49;20.40;99.90
16767;DHT22;8501;49.926;8.404;2023-07-13T05:33:15;20.40;99.90
16767;DHT22;8501;49.926;8.404;2023-07-13T05:35:41;20.40;99.90
16767;DHT22;8501;49.926;8.404;2023-07-13T05:38:06;20.50;99.90
16767;DHT22;8501;49.926;8.404;2023-07-13T05:40:32;20.50;99.90
16767;DHT22;8501;49.926;8.404;2023-07-13T05:42:58;20.50;99.90
16767;DHT22;8501;49.926;8.404;2023-07-13T05:45:24;20.60;99.90
16767;DHT22;8501;49.926;8.404;2023-07-13T05:47:49;20.70;99.90
16767;DHT22;8501;49.926;8.404;2023-07-13T05:50:15;20.70;99.90
16767;DHT22;8501;49.926;8.404;2023-07-13T05:52:40;20.80;99.90
16767;DHT22;8501;49.926;8.404;2023-07-13T05:55:06;20.80;99.90
16767;DHT22;8501;49.926;8.404;2023-07-13T05:57:32;20.90;99.90
16767;DHT22;8501;49.926;8.404;2023-07-13T05:59:57;20.90;99.90
16767;DHT22;8501;49.926;8.404;2023-07-13T06:02:23;21.00;99.90
16767;DHT22;8501;49.926;8.404;2023-07-13T06:04:48;21.00;99.90
16767;DHT22;8501;49.926;8.404;2023-07-13T06:07:14;21.10;99.90
16767;DHT22;8501;49.926;8.404;2023-07-13T06:09:40;21.10;99.90
16767;DHT22;8501;49.926;8.404;2023-07-13T06:12:05;21.10;99.90
16767;DHT22;8501;49.926;8.404;2023-07-13T06:14:31;21.20;99.90
16767;DHT22;8501;49.926;8.404;2023-07-13T06:16:57;21.20;99.90
16767;DHT22;8501;49.926;8.404;2023-07-13T06:19:22;21.20;99.90
16767;DHT22;8501;49.926;8.404;2023-07-13T06:21:48;21.20;99.90
16767;DHT22;8501;49.926;8.404;2023-07-13T06:24:13;21.30;99.90
16767;DHT22;8501;49.926;8.404;2023-07-13T06:26:39;21.30;99.90
16767;DHT22;8501;49.926;8.404;2023-07-13T06:29:04;21.30;99.90
16767;DHT22;8501;49.926;8.404;2023-07-13T06:31:30;21.30;99.90
16767;DHT22;8501;49.926;8.404;2023-07-13T06:33:56;21.30;99.90
16767;DHT22;8501;49.926;8.404;2023-07-13T06:36:21;21.40;99.90
16767;DHT22;8501;49.926;8.404;2023-07-13T06:38:47;21.50;99.90
16767;DHT22;8501;49.926;8.404;2023-07-13T06:41:12;21.40;99.90
16767;DHT22;8501;49.926;8.404;2023-07-13T06:43:38;21.40;99.90
16767;DHT22;8501;49.926;8.404;2023-07-13T06:46:04;21.50;99.90
16767;DHT22;8501;49.926;8.404;2023-07-13T06:48:30;21.60;99.90
16767;DHT22;8501;49.926;8.404;2023-07-13T06:50:55;21.60;99.90
16767;DHT22;8501;49.926;8.404;2023-07-13T06:53:21;21.60;99.90
16767;DHT22;8501;49.926;8.404;2023-07-13T06:55:48;21.70;99.90
16767;DHT22;8501;49.926;8.404;2023-07-13T06:58:16;21.70;99.90
16767;DHT22;8501;49.926;8.404;2023-07-13T07:00:42;21.80;99.90
16767;DHT22;8501;49.926;8.404;2023-07-13T07:03:07;21.90;99.90
16767;DHT22;8501;49.926;8.404;2023-07-13T07:05:33;21.90;99.90
16767;DHT22;8501;49.926;8.404;2023-07-13T07:07:59;21.90;99.90
16767;DHT22;8501;49.926;8.404;2023-07-13T07:10:24;22.00;99.90
16767;DHT22;8501;49.926;8.404;2023-07-13T07:12:50;22.00;99.90
16767;DHT22;8501;49.926;8.404;2023-07-13T07:15:16;22.10;99.90
16767;DHT22;8501;49.926;8.404;2023-07-13T07:17:42;22.10;99.90
16767;DHT22;8501;49.926;8.404;2023-07-13T07:20:08;22.10;99.90
16767;DHT22;8501;49.926;8.404;2023-07-13T07:22:33;22.20;99.90
16767;DHT22;8501;49.926;8.404;2023-07-13T07:24:59;22.20;99.90
16767;DHT22;8501;49.926;8.404;2023-07-13T07:27:25;22.20;99.90
16767;DHT22;8501;49.926;8.404;2023-07-13T07:29:50;22.30;99.90
16767;DHT22;8501;49.926;8.404;2023-07-13T07:32:16;22.40;99.90
16767;DHT22;8501;49.926;8.404;2023-07-13T07:34:41;22.50;99.90
16767;DHT22;8501;49.926;8.404;2023-07-13T07:37:09;22.50;99.90
16767;DHT22;8501;49.926;8.404;2023-07-13T07:39:36;22.60;99.90
16767;DHT22;8501;49.926;8.404;2023-07-13T07:42:01;22.60;99.90
16767;DHT22;8501;49.926;8.404;2023-07-13T07:44:27;22.60;99.90
16767;DHT22;8501;49.926;8.404;2023-07-13T07:46:53;22.70;99.90
16767;DHT22;8501;49.926;8.404;2023-07-13T07:49:19;22.70;99.90
16767;DHT22;8501;49.926;8.404;2023-07-13T07:51:45;22.80;99.90
16767;DHT22;8501;49.926;8.404;2023-07-13T07:54:11;22.80;99.90
16767;DHT22;8501;49.926;8.404;2023-07-13T07:56:36;22.80;99.90
16767;DHT22;8501;49.926;8.404;2023-07-13T07:59:02;22.80;99.90
16767;DHT22;8501;49.926;8.404;2023-07-13T08:01:28;22.90;99.90
16767;DHT22;8501;49.926;8.404;2023-07-13T08:03:53;22.90;99.90
16767;DHT22;8501;49.926;8.404;2023-07-13T08:06:19;22.80;99.90
16767;DHT22;8501;49.926;8.404;2023-07-13T08:08:45;23.00;99.90
16767;DHT22;8501;49.926;8.404;2023-07-13T08:11:11;23.00;99.90
16767;DHT22;8501;49.926;8.404;2023-07-13T08:13:37;23.00;99.90
16767;DHT22;8501;49.926;8.404;2023-07-13T08:16:05;23.00;99.90
16767;DHT22;8501;49.926;8.404;2023-07-13T08:18:31;23.10;99.90
16767;DHT22;8501;49.926;8.404;2023-07-13T08:20:56;23.20;99.90
16767;DHT22;8501;49.926;8.404;2023-07-13T08:23:22;23.30;99.90
16767;DHT22;8501;49.926;8.404;2023-07-13T08:25:55;23.30;99.90
16767;DHT22;8501;49.926;8.404;2023-07-13T08:28:21;23.30;99.90
16767;DHT22;8501;49.926;8.404;2023-07-13T08:30:47;23.40;99.90
16767;DHT22;8501;49.926;8.404;2023-07-13T08:33:17;23.50;99.90
16767;DHT22;8501;49.926;8.404;2023-07-13T08:35:48;23.50;99.90
16767;DHT22;8501;49.926;8.404;2023-07-13T08:38:15;23.60;99.90
16767;DHT22;8501;49.926;8.404;2023-07-13T08:40:41;23.70;99.90
16767;DHT22;8501;49.926;8.404;2023-07-13T08:43:16;23.60;99.90
16767;DHT22;8501;49.926;8.404;2023-07-13T08:45:55;23.70;99.90
16767;DHT22;8501;49.926;8.404;2023-07-13T08:48:30;23.60;99.90
16767;DHT22;8501;49.926;8.404;2023-07-13T08:51:02;23.50;99.90
16767;DHT22;8501;49.926;8.404;2023-07-13T08:53:36;23.70;99.90
16767;DHT22;8501;49.926;8.404;2023-07-13T08:56:04;23.70;99.90
16767;DHT22;8501;49.926;8.404;2023-07-13T08:58:31;23.70;99.90
16767;DHT22;8501;49.926;8.404;2023-07-13T09:01:12;23.80;99.90
16767;DHT22;8501;49.926;8.404;2023-07-13T09:03:59;23.80;99.90
16767;DHT22;8501;49.926;8.404;2023-07-13T09:06:42;23.90;99.90
16767;DHT22;8501;49.926;8.404;2023-07-13T09:15:02;24.10;99.90
16767;DHT22;8501;49.926;8.404;2023-07-13T09:17:39;24.10;99.90
16767;DHT22;8501;49.926;8.404;2023-07-13T09:20:27;24.20;99.90
16767;DHT22;8501;49.926;8.404;2023-07-13T09:22:54;24.20;99.90
16767;DHT22;8501;49.926;8.404;2023-07-13T09:28:34;24.20;99.90
16767;DHT22;8501;49.926;8.404;2023-07-13T09:31:03;24.20;99.90
16767;DHT22;8501;49.926;8.404;2023-07-13T09:33:30;24.30;99.90
16767;DHT22;8501;49.926;8.404;2023-07-13T09:35:57;24.40;99.90
16767;DHT22;8501;49.926;8.404;2023-07-13T09:38:24;24.40;99.90
16767;DHT22;8501;49.926;8.404;2023-07-13T09:43:28;24.60;99.90
16767;DHT22;8501;49.926;8.404;2023-07-13T09:45:55;24.60;99.90
16767;DHT22;8501;49.926;8.404;2023-07-13T09:48:21;24.60;99.90
16767;DHT22;8501;49.926;8.404;2023-07-13T09:50:47;24.70;99.90
16767;DHT22;8501;49.926;8.404;2023-07-13T09:53:14;24.70;99.90
16767;DHT22;8501;49.926;8.404;2023-07-13T09:55:41;24.60;99.90
16767;DHT22;8501;49.926;8.404;2023-07-13T09:58:19;24.50;99.90
16767;DHT22;8501;49.926;8.404;2023-07-13T10:00:59;24.60;99.90
16767;DHT22;8501;49.926;8.404;2023-07-13T10:03:34;24.70;99.90
16767;DHT22;8501;49.926;8.404;2023-07-13T10:06:17;24.80;99.90
16767;DHT22;8501;49.926;8.404;2023-07-13T10:08:48;24.80;99.90
16767;DHT22;8501;49.926;8.404;2023-07-13T10:16:14;24.90;99.90
16767;DHT22;8501;49.926;8.404;2023-07-13T10:18:46;25.00;99.90
16767;DHT22;8501;49.926;8.404;2023-07-13T10:21:17;25.10;99.90
16767;DHT22;8501;49.926;8.404;2023-07-13T10:23:47;25.10;99.90
16767;DHT22;8501;49.926;8.404;2023-07-13T10:26:19;25.10;99.90
16767;DHT22;8501;49.926;8.404;2023-07-13T10:28:51;25.20;99.90
16767;DHT22;8501;49.926;8.404;2023-07-13T10:31:18;25.20;99.70
16767;DHT22;8501;49.926;8.404;2023-07-13T10:33:45;25.20;99.90
16767;DHT22;8501;49.926;8.404;2023-07-13T10:36:38;25.20;99.90
16767;DHT22;8501;49.926;8.404;2023-07-13T10:39:06;25.30;99.50
16767;DHT22;8501;49.926;8.404;2023-07-13T10:41:39;25.40;99.90
16767;DHT22;8501;49.926;8.404;2023-07-13T10:44:20;25.50;99.20
16767;DHT22;8501;49.926;8.404;2023-07-13T10:46:46;25.60;99.20
16767;DHT22;8501;49.926;8.404;2023-07-13T10:49:12;25.60;99.50
16767;DHT22;8501;49.926;8.404;2023-07-13T10:51:39;25.70;98.50
16767;DHT22;8501;49.926;8.404;2023-07-13T10:54:31;25.70;98.50
16767;DHT22;8501;49.926;8.404;2023-07-13T10:57:18;25.80;98.60
16767;DHT22;8501;49.926;8.404;2023-07-13T11:02:28;25.80;96.90
16767;DHT22;8501;49.926;8.404;2023-07-13T11:04:55;25.70;97.40
16767;DHT22;8501;49.926;8.404;2023-07-13T11:07:29;25.80;97.60
16767;DHT22;8501;49.926;8.404;2023-07-13T11:09:59;25.90;97.80
16767;DHT22;8501;49.926;8.404;2023-07-13T11:12:28;26.00;97.40
16767;DHT22;8501;49.926;8.404;2023-07-13T11:25:30;26.10;97.00
16767;DHT22;8501;49.926;8.404;2023-07-13T11:33:30;26.10;96.90
16767;DHT22;8501;49.926;8.404;2023-07-13T11:36:15;26.10;97.40
16767;DHT22;8501;49.926;8.404;2023-07-13T11:38:43;26.10;97.30
16767;DHT22;8501;49.926;8.404;2023-07-13T11:41:21;26.10;96.70
16767;DHT22;8501;49.926;8.404;2023-07-13T11:43:49;26.10;96.90
16767;DHT22;8501;49.926;8.404;2023-07-13T11:46:21;26.10;97.40
16767;DHT22;8501;49.926;8.404;2023-07-13T11:48:48;26.20;96.30
16767;DHT22;8501;49.926;8.404;2023-07-13T11:53:48;26.20;96.00
16767;DHT22;8501;49.926;8.404;2023-07-13T11:56:14;26.00;95.80
16767;DHT22;8501;49.926;8.404;2023-07-13T11:58:40;26.00;96.10
16767;DHT22;8501;49.926;8.404;2023-07-13T12:01:09;26.10;96.50
16767;DHT22;8501;49.926;8.404;2023-07-13T12:03:39;26.00;96.40
16767;DHT22;8501;49.926;8.404;2023-07-13T12:06:25;25.90;95.80
16767;DHT22;8501;49.926;8.404;2023-07-13T12:08:50;26.00;96.20
16767;DHT22;8501;49.926;8.404;2023-07-13T12:11:18;26.20;95.90
16767;DHT22;8501;49.926;8.404;2023-07-13T12:13:44;26.30;95.30
16767;DHT22;8501;49.926;8.404;2023-07-13T12:18:52;26.40;95.20
16767;DHT22;8501;49.926;8.404;2023-07-13T12:21:19;26.40;94.80
16767;DHT22;8501;49.926;8.404;2023-07-13T12:23:48;26.60;94.70
16767;DHT22;8501;49.926;8.404;2023-07-13T12:26:15;26.60;94.70
16767;DHT22;8501;49.926;8.404;2023-07-13T12:36:35;26.40;94.60
16767;DHT22;8501;49.926;8.404;2023-07-13T12:39:06;26.30;94.80
16767;DHT22;8501;49.926;8.404;2023-07-13T12:41:36;26.30;95.30
16767;DHT22;8501;49.926;8.404;2023-07-13T12:44:02;26.30;95.20
16767;DHT22;8501;49.926;8.404;2023-07-13T12:46:28;26.30;95.30
16767;DHT22;8501;49.926;8.404;2023-07-13T12:48:57;26.40;95.40
16767;DHT22;8501;49.926;8.404;2023-07-13T12:51:27;26.40;94.90
16767;DHT22;8501;49.926;8.404;2023-07-13T12:54:15;26.40;95.20
16767;DHT22;8501;49.926;8.404;2023-07-13T12:56:42;26.40;95.50
16767;DHT22;8501;49.926;8.404;2023-07-13T12:59:15;26.30;95.10
16767;DHT22;8501;49.926;8.404;2023-07-13T13:01:42;26.40;94.90
16767;DHT22;8501;49.926;8.404;2023-07-13T13:04:09;26.30;94.30
16767;DHT22;8501;49.926;8.404;2023-07-13T13:06:36;26.20;94.00
16767;DHT22;8501;49.926;8.404;2023-07-13T13:09:03;26.30;94.70
16767;DHT22;8501;49.926;8.404;2023-07-13T13:11:34;26.40;94.80
16767;DHT22;8501;49.926;8.404;2023-07-13T13:14:00;26.40;94.60
16767;DHT22;8501;49.926;8.404;2023-07-13T13:16:29;26.40;94.20
16767;DHT22;8501;49.926;8.404;2023-07-13T13:18:59;26.30;94.10
16767;DHT22;8501;49.926;8.404;2023-07-13T13:21:26;26.30;94.00
16767;DHT22;8501;49.926;8.404;2023-07-13T13:23:52;26.30;94.30
16767;DHT22;8501;49.926;8.404;2023-07-13T13:26:19;26.30;94.40
16767;DHT22;8501;49.926;8.404;2023-07-13T13:28:46;26.20;94.20
16767;DHT22;8501;49.926;8.404;2023-07-13T13:31:13;26.20;94.30
16767;DHT22;8501;49.926;8.404;2023-07-13T13:33:40;26.20;94.80
16767;DHT22;8501;49.926;8.404;2023-07-13T13:36:15;26.10;94.30
16767;DHT22;8501;49.926;8.404;2023-07-13T13:38:41;26.10;94.50
16767;DHT22;8501;49.926;8.404;2023-07-13T13:41:10;26.20;94.70
16767;DHT22;8501;49.926;8.404;2023-07-13T13:43:35;26.20;94.70
16767;DHT22;8501;49.926;8.404;2023-07-13T13:46:01;26.20;94.60
16767;DHT22;8501;49.926;8.404;2023-07-13T13:48:32;26.20;94.80
16767;DHT22;8501;49.926;8.404;2023-07-13T13:50:59;26.30;94.80
16767;DHT22;8501;49.926;8.404;2023-07-13T13:53:25;26.20;95.00
16767;DHT22;8501;49.926;8.404;2023-07-13T13:55:51;26.20;95.20
16767;DHT22;8501;49.926;8.404;2023-07-13T13:58:18;26.20;94.60
16767;DHT22;8501;49.926;8.404;2023-07-13T14:00:45;26.20;94.90
16767;DHT22;8501;49.926;8.404;2023-07-13T14:03:20;26.20;94.20
16767;DHT22;8501;49.926;8.404;2023-07-13T14:05:48;26.30;94.60
16767;DHT22;8501;49.926;8.404;2023-07-13T14:08:20;26.30;94.50
16767;DHT22;8501;49.926;8.404;2023-07-13T14:10:49;26.30;94.60
16767;DHT22;8501;49.926;8.404;2023-07-13T14:13:21;26.40;94.40
16767;DHT22;8501;49.926;8.404;2023-07-13T14:15:47;26.40;93.80
16767;DHT22;8501;49.926;8.404;2023-07-13T14:18:13;26.40;93.80
16767;DHT22;8501;49.926;8.404;2023-07-13T14:20:44;26.50;93.50
16767;DHT22;8501;49.926;8.404;2023-07-13T14:23:13;26.50;93.90
16767;DHT22;8501;49.926;8.404;2023-07-13T14:25:38;26.60;93.70
16767;DHT22;8501;49.926;8.404;2023-07-13T14:30:45;26.50;92.50
16767;DHT22;8501;49.926;8.404;2023-07-13T14:33:12;26.40;92.80
16767;DHT22;8501;49.926;8.404;2023-07-13T14:35:38;26.40;92.70
16767;DHT22;8501;49.926;8.404;2023-07-13T14:38:04;26.30;93.20
16767;DHT22;8501;49.926;8.404;2023-07-13T14:40:31;26.30;93.30
16767;DHT22;8501;49.926;8.404;2023-07-13T14:42:57;26.20;93.60
16767;DHT22;8501;49.926;8.404;2023-07-13T14:45:24;26.10;94.30
16767;DHT22;8501;49.926;8.404;2023-07-13T14:47:50;26.20;94.20
16767;DHT22;8501;49.926;8.404;2023-07-13T14:50:20;26.20;94.00
16767;DHT22;8501;49.926;8.404;2023-07-13T14:52:47;26.30;94.30
16767;DHT22;8501;49.926;8.404;2023-07-13T14:55:15;26.30;94.10
16767;DHT22;8501;49.926;8.404;2023-07-13T14:57:41;26.40;93.90
16767;DHT22;8501;49.926;8.404;2023-07-13T15:00:16;26.40;94.10
16767;DHT22;8501;49.926;8.404;2023-07-13T15:02:45;26.60;94.10
16767;DHT22;8501;49.926;8.404;2023-07-13T15:05:21;26.60;94.00
16767;DHT22;8501;49.926;8.404;2023-07-13T15:07:48;26.60;93.80
16767;DHT22;8501;49.926;8.404;2023-07-13T15:10:20;26.50;94.00
16767;DHT22;8501;49.926;8.404;2023-07-13T15:12:45;26.40;93.60
16767;DHT22;8501;49.926;8.404;2023-07-13T15:15:11;26.40;93.80
16767;DHT22;8501;49.926;8.404;2023-07-13T15:20:21;26.30;93.50
16767;DHT22;8501;49.926;8.404;2023-07-13T15:22:49;26.30;93.40
16767;DHT22;8501;49.926;8.404;2023-07-13T15:25:17;26.20;93.60
16767;DHT22;8501;49.926;8.404;2023-07-13T15:27:43;26.20;93.90
16767;DHT22;8501;49.926;8.404;2023-07-13T15:30:09;26.10;93.70
16767;DHT22;8501;49.926;8.404;2023-07-13T15:32:35;26.20;93.90
16767;DHT22;8501;49.926;8.404;2023-07-13T15:35:01;26.40;93.50
16767;DHT22;8501;49.926;8.404;2023-07-13T15:37:26;26.90;93.40
16767;DHT22;8501;49.926;8.404;2023-07-13T15:39:52;27.30;93.30
16767;DHT22;8501;49.926;8.404;2023-07-13T15:42:20;27.60;92.90
16767;DHT22;8501;49.926;8.404;2023-07-13T15:44:46;27.80;92.50
16767;DHT22;8501;49.926;8.404;2023-07-13T15:47:13;27.70;92.20
16767;DHT22;8501;49.926;8.404;2023-07-13T15:49:40;27.80;91.70
16767;DHT22;8501;49.926;8.404;2023-07-13T15:52:20;27.70;91.80
16767;DHT22;8501;49.926;8.404;2023-07-13T15:54:47;27.50;92.20
16767;DHT22;8501;49.926;8.404;2023-07-13T15:57:13;27.40;91.80
16767;DHT22;8501;49.926;8.404;2023-07-13T15:59:40;27.40;91.90
16767;DHT22;8501;49.926;8.404;2023-07-13T16:02:32;27.30;91.70
16767;DHT22;8501;49.926;8.404;2023-07-13T16:04:58;27.20;92.00
16767;DHT22;8501;49.926;8.404;2023-07-13T16:07:24;27.00;91.50
16767;DHT22;8501;49.926;8.404;2023-07-13T16:09:51;26.90;91.60
16767;DHT22;8501;49.926;8.404;2023-07-13T16:12:17;26.70;91.90
16767;DHT22;8501;49.926;8.404;2023-07-13T16:14:43;26.70;92.00
16767;DHT22;8501;49.926;8.404;2023-07-13T16:17:12;26.70;91.80
16767;DHT22;8501;49.926;8.404;2023-07-13T16:19:38;26.60;91.70
16767;DHT22;8501;49.926;8.404;2023-07-13T16:22:05;26.60;91.80
16767;DHT22;8501;49.926;8.404;2023-07-13T16:24:31;26.60;92.00
16767;DHT22;8501;49.926;8.404;2023-07-13T16:26:58;26.70;92.10
16767;DHT22;8501;49.926;8.404;2023-07-13T16:29:29;26.60;92.20
16767;DHT22;8501;49.926;8.404;2023-07-13T16:34:29;26.80;91.80
16767;DHT22;8501;49.926;8.404;2023-07-13T16:36:55;26.80;91.80
16767;DHT22;8501;49.926;8.404;2023-07-13T16:39:22;26.60;92.30
16767;DHT22;8501;49.926;8.404;2023-07-13T16:41:51;26.70;92.40
16767;DHT22;8501;49.926;8.404;2023-07-13T16:44:18;26.70;92.40
16767;DHT22;8501;49.926;8.404;2023-07-13T16:46:49;26.70;91.90
16767;DHT22;8501;49.926;8.404;2023-07-13T16:49:27;26.60;91.80